Ruth, NV (89319)

3:07 AM PST on January 21, 2017 (GMT -0800)
South Murry St | | Change Station
Active Advisory: Winter Storm Watch

Elev 6542 ft 39.23 °N, 114.90 °W | Updated 50 seconds ago

Mostly Cloudy
Mostly Cloudy
23.4 °F
Feels Like 23 °F
N
0.0
Wind Variable Wind from SSW

Today
High -- | Low -- °F
--% Chance of Precip.
Yesterday
High -- | Low -- °F
Precip. -- in
Pressure 29.33 in
Visibility 10.0 miles
Clouds Few 5000 ft
Scattered Clouds 6000 ft
Scattered Clouds 12000 ft
Windchill 23 °F
Dew Point 19 °F
Humidity 86%
Rainfall 0.00 in
Snow Depth Not available.
6:54 AM 4:48 PM
Waning Crescent, 36% visible
METAR KELY 211053Z AUTO 28009KT 10SM FEW050 SCT060 SCT120 M04/M07 A2931 RMK AO2 SLP931 T10441072
Pressure 29.33 in
Visibility 10.0 miles
Clouds Few 5000 ft
Scattered Clouds 6000 ft
Scattered Clouds 12000 ft
Windchill 23 °F
Dew Point 19 °F
Humidity 86%
Rainfall 0.00 in
Snow Depth Not available.
6:54 AM 4:48 PM
Waning Crescent, 36% visible
METAR KELY 211053Z AUTO 28009KT 10SM FEW050 SCT060 SCT120 M04/M07 A2931 RMK AO2 SLP931 T10441072

Get Your Daily Forecast Email!

Thanks for signing up!

Be on the lookout for a verification email in your inbox.

You'll start receiving the daily forecast at 8 AM.

×

10-Day Weather Forecast

Almanac

Astronomy

Jan. 21, 2017 Rise Set
Actual Time
Civil Twilight
Nautical Twilight
Astronomical Twilight
Moon
Length of Visible Light
Length of Day
Tomorrow will be .
, % of the Moon is Illuminated

Today's Extremes

State Highs State Lows

Community

WunderPhotos

Upload Photos

1,962,540 photos uploaded!

WunderBlog® & News

Nearby

Air Quality

  Air Quality AQ Index Pollutant
Not available.

Snow Depth

Station Depth Elevation

Earthquake Activity

City Distance Mag. Time & Date
Minimum magnitude displayed is 2.5.

Coastal Water Temperatures

Place Temperature

Stations

Nearby Weather Stations

Station Location Temp. Windchill Dew Point Humidity Wind Precip. Elev Updated Type
                   

Watches & Warnings

Winter Storm Watch
Issued: 2:41 AM PST Jan. 21, 2017 – National Weather Service

... Winter Storm Watch remains in effect from late tonight through
Monday afternoon...

* tonight through Monday snow accumulations... 5-9 inches in the
valleys and up to 2 feet in the mountains.

* Sunday through Monday winds... south 15 to 25 mph gusting to 45
mph.

* Impacts... main impacts will be to travel along highways 50, 93
and 6, especially at summits and passes. Icy spots and poor
visibility will make travel difficult at times. Blowing snow
will affect travel from Sunday through early Monday. Travel or
recreation in the mountains will be hazardous, if not
impossible.

* For a detailed view of the hazard area, visit
http://www.Wrh.NOAA.Gov/map.

Precautionary/preparedness actions...

A Winter Storm Watch means there is a potential for significant
snow, sleet, or ice accumulations that may impact travel.
Continue to monitor the latest forecasts.



Jrm